Turpin, Oklahoma
Current Conditions -  °F | °C
As of 11:55 AM on Saturday 25 Oct 2014 (Local Time) from KLBL Reporting Station
Clear Clear  
Wind Chill: 75°   Ceiling: Unl
Heat Index: 75°   Visibility: 10mi
Dew Point: 46°   Wind: 6mph
Humidity: 36%   Direction: 180°S
Pressure: 30.13"   Gusts: NA
Location:  36.87°N, 100.88°W
Report Text: KLBL 251655Z AUTO 18005KT 10SM CLR 24/08 A3013 RMK AO1
Loading
Personal Weather Stations






























Interactive Weather Map
Tropical Storm Tracking
New forecast layout! Learn more

10-Day Weather Forecast

Advertisements
Track Severe Weather on mobile